Aérodrome :
LOGIN :

S'inscrire | Disclaimer

   EN    FR    IT 

 










Légende :    VFR   VFR Marginal   IFR   IFR Intensif   IFR Très Intensif
Visi : 
Plafond : 
>= 8 km
>= 3000ft
5 à 8 km
1000 à 3000 ft
1500m à 5 km
500 à 1000 ft
800 à 1500m
200 à 500 ft
< 800m
< 200 ft
Symboles :   Orages  Brouillard  Fortes neiges  Fortes précipitations  Vent > 20 kt
SIGMETs :   Divers  Orages  Givrage  Turbulence  Onde Orograph.  Cendres Volcan.






- Altitude de l'aérodrome : 1260 ft
- Code IATA : LDE


LFBT - Tarbes / Ossun

DERNIER METAR :
  • 051900Z AUTO 24005KT 9999 FEW025 BKN033 BKN047 12/08 Q1020 TEMPO SHRA SCT020TCU

METARs EXPIRÉS :
  • 051830Z AUTO 24005KT 9999 FEW033 OVC074 12/08 Q1019 TEMPO SHRA SCT020TCU
  • 051800Z AUTO 26005KT 9000 SCT030 SCT047 OVC070 12/08 Q1019 TEMPO SHRA SCT020TCU
  • 051730Z AUTO 27006KT 9000 FEW024/// SCT056/// OVC070/// ///TCU 12/08 Q1019 BECMG BKN025
  • 051700Z AUTO 28004KT 240V310 9999 FEW023 SCT029 BKN047 13/08 Q1019 TEMPO SHRA SCT020CB BKN025
  • 051630Z AUTO 26005KT 230V290 9999 FEW021 OVC056 13/08 Q1018 TEMPO SHRA SCT020CB BKN025

TAF TAF LFBT
Valide du 05 à 18h jusqu'au 06 à 18h UTC


051700Z 0518/0618 VRB03KT 9999 BKN025
TEMPO 0518/0524 SHRA SCT020TCU
BECMG 0603/0605 2000 BR BKN003 BKN025
BECMG 0606/0608 9999 NSW BKN020
TEMPO 0609/0618 SHRA BKN015 SCT045CB



MET'MAP, la Météo Aéronautique d'un coup d'oeil ! - Copyright ORBIFLY Décembre 2007 - Disclaimer

ORBIFLY MET'MAP TEAM :

Programmation & Développement : Alexandra Zaïnal
Sur une idée originale de : Baudouin d'Aumeries
Assistance à la programmation : Marc-Olivier Méhu
Soutien technique & logistique : Manuel Goepfert

Contact : metmap@orbifly.com




SOURCES & CREDITS :

   NOAA